Time;durP1;ratioP1;P1;durP2;ratioP2;P2;SDS_P1;SDS_P2;PMS_P1;PMS_P2;Temp;Humidity;BMP_temperature;BMP_pressure;BME280_temperature;BME280_humidity;BME280_pressure;Samples;Min_cycle;Max_cycle;Signal;HPM_P1;HPM_P2
2021/09/06 11:28:59;;;;;;;;;117.00;116.25;26.20;49.10;;;;;;5072207;27;13638;-84
2021/09/06 11:39:05;;;;;;;;;105.50;105.50;26.70;47.30;;;;;;5054095;28;13757;-87
2021/09/06 11:42:57;;;;;;;;;105.25;105.25;27.30;46.00;;;;;;5069083;27;13748;-81
2021/09/06 11:45:23;;;;;;;;;109.75;108.25;26.90;46.00;;;;;;5115130;28;8865;-86
2021/09/06 11:47:49;;;;;;;;;103.75;102.00;27.20;51.30;;;;;;5075945;28;8786;-83
2021/09/06 11:50:15;;;;;;;;;105.25;105.25;27.60;47.00;;;;;;5075224;28;8823;-82
2021/09/06 11:52:42;;;;;;;;;103.00;103.00;27.80;45.20;;;;;;5074121;28;8822;-82
2021/09/06 11:55:16;;;;;;;;;103.25;103.25;27.90;44.90;;;;;;5078834;28;8778;-79
2021/09/06 12:05:03;;;;;;;;;102.50;102.50;27.30;45.20;;;;;;5078306;27;13743;-81
2021/09/06 12:07:29;;;;;;;;;102.25;101.75;27.10;48.20;;;;;;4154149;27;10000859;-79
2021/09/06 12:09:55;;;;;;;;;106.00;105.75;27.60;46.60;;;;;;4997129;28;10228;-74
2021/09/06 12:12:24;;;;;;;;;106.50;105.25;27.80;46.20;;;;;;5036302;28;8806;-79
2021/09/06 12:14:51;;;;;;;;;109.25;109.25;28.00;46.80;;;;;;5021233;28;8800;-80
2021/09/06 12:17:17;;;;;;;;;133.75;133.00;28.30;45.80;;;;;;5016608;28;8801;-79
2021/09/06 12:19:47;;;;;;;;;135.25;134.50;28.30;45.70;;;;;;5034437;28;8963;-76
2021/09/06 12:22:21;;;;;;;;;127.00;127.00;28.10;46.20;;;;;;5018876;28;8824;-76
2021/09/06 12:24:49;;;;;;;;;114.50;113.25;28.00;47.30;;;;;;5030381;28;8810;-81
2021/09/06 12:27:17;;;;;;;;;109.75;109.25;28.10;46.90;;;;;;5024352;28;8835;-82
2021/09/06 12:31:03;;;;;;;;;76.00;71.00;29.20;44.10;;;;;;5073776;27;13503;-71
2021/09/06 12:33:29;;;;;;;;;78.75;77.00;29.30;42.50;;;;;;5025086;28;10447;-69
2021/09/06 12:36:27;;;;;;;;;16.25;16.25;29.80;40.00;;;;;;5075074;27;14097;-71
2021/09/06 12:38:53;;;;;;;;;16.25;16.25;30.70;31.60;;;;;;5071410;28;11503;-69
2021/09/06 12:41:19;;;;;;;;;14.00;14.00;31.40;30.50;;;;;;5071697;28;8771;-72
2021/09/06 12:43:44;;;;;;;;;16.25;16.25;31.90;28.90;;;;;;5071637;28;8789;-65
2021/09/06 12:46:10;;;;;;;;;16.50;16.50;32.50;28.50;;;;;;5078298;28;10389;-66
2021/09/06 12:48:36;;;;;;;;;16.75;16.75;33.10;28.40;;;;;;5071487;28;8782;-69
2021/09/06 12:51:02;;;;;;;;;16.25;16.25;33.60;27.10;;;;;;5071620;28;8819;-67
2021/09/06 12:53:27;;;;;;;;;15.00;15.00;34.00;27.00;;;;;;5067554;28;8819;-69
2021/09/06 12:55:54;;;;;;;;;19.75;19.75;34.50;26.30;;;;;;5086913;28;8816;-72
2021/09/06 12:58:19;;;;;;;;;12.25;12.25;34.90;26.60;;;;;;5070598;28;8771;-72
2021/09/06 13:00:45;;;;;;;;;14.75;14.75;34.90;26.10;;;;;;5071516;28;11536;-73
2021/09/06 13:03:11;;;;;;;;;15.50;15.50;35.10;25.20;;;;;;5071554;28;8782;-73
2021/09/06 13:05:37;;;;;;;;;16.75;16.75;35.30;25.60;;;;;;5086202;28;8820;-72
2021/09/06 13:08:03;;;;;;;;;13.75;13.75;35.40;25.90;;;;;;5091430;28;8788;-73
2021/09/06 13:10:30;;;;;;;;;16.75;16.75;35.60;25.20;;;;;;5091388;28;8792;-73
2021/09/06 13:12:57;;;;;;;;;14.25;14.25;35.60;25.10;;;;;;5091176;28;11498;-75
2021/09/06 13:15:23;;;;;;;;;13.25;13.25;35.90;25.10;;;;;;5091425;28;11514;-73
2021/09/06 13:17:48;;;;;;;;;12.25;12.25;36.00;24.80;;;;;;5087905;28;12150;-71
2021/09/06 13:20:14;;;;;;;;;15.00;15.00;36.10;24.80;;;;;;5071022;28;8802;-70
2021/09/06 13:22:42;;;;;;;;;14.50;14.50;36.30;25.00;;;;;;5069766;28;8821;-70
2021/09/06 13:25:09;;;;;;;;;16.75;16.75;36.50;23.80;;;;;;5070750;28;11487;-71
2021/09/06 13:27:35;;;;;;;;;14.00;14.00;36.40;23.80;;;;;;5070849;28;11556;-69
2021/09/06 13:30:02;;;;;;;;;15.75;15.75;36.80;23.80;;;;;;5070740;28;12143;-70
2021/09/06 13:32:28;;;;;;;;;10.25;10.25;36.80;24.00;;;;;;5070512;28;8767;-70
2021/09/06 13:34:53;;;;;;;;;12.00;12.00;36.70;23.70;;;;;;5061518;28;11579;-72
2021/09/06 13:37:19;;;;;;;;;15.50;15.25;36.90;23.40;;;;;;5050669;28;8777;-71
2021/09/06 13:39:45;;;;;;;;;8.50;8.50;37.00;23.80;;;;;;5050754;28;8774;-69
2021/09/06 13:42:11;;;;;;;;;15.00;15.00;37.10;23.50;;;;;;5050552;28;11593;-69
2021/09/06 13:44:37;;;;;;;;;15.75;15.75;37.10;23.60;;;;;;5050175;28;9415;-69
2021/09/06 13:47:04;;;;;;;;;12.25;12.25;37.50;23.70;;;;;;5041150;28;8786;-75
2021/09/06 13:49:30;;;;;;;;;11.50;11.50;37.90;22.90;;;;;;5037169;28;8831;-77
2021/09/06 13:51:56;;;;;;;;;13.25;13.25;38.00;23.00;;;;;;5036877;28;11612;-77
2021/09/06 13:54:22;;;;;;;;;8.00;8.00;38.00;22.80;;;;;;5035704;28;12165;-75
2021/09/06 13:56:48;;;;;;;;;17.00;17.00;38.10;23.00;;;;;;5037397;28;11474;-74
2021/09/06 13:59:14;;;;;;;;;16.75;16.75;38.90;24.10;;;;;;5036783;28;8777;-73
2021/09/06 14:01:40;;;;;;;;;16.00;16.00;39.90;21.80;;;;;;5036754;28;11555;-71
2021/09/06 14:04:06;;;;;;;;;10.75;10.75;39.40;21.70;;;;;;5040952;28;8855;-77
2021/09/06 14:06:32;;;;;;;;;13.75;13.75;38.50;21.70;;;;;;5074260;28;8787;-74
2021/09/06 14:08:58;;;;;;;;;13.25;13.25;37.70;22.20;;;;;;5055369;28;8810;-73
2021/09/06 14:11:24;;;;;;;;;14.50;14.50;36.80;22.80;;;;;;5056944;28;11476;-74
2021/09/06 14:13:50;;;;;;;;;15.25;15.25;36.10;23.30;;;;;;5056055;28;8849;-74
2021/09/06 14:16:16;;;;;;;;;12.25;12.25;35.40;23.70;;;;;;5053482;28;11659;-75
2021/09/06 14:18:42;;;;;;;;;12.75;12.75;34.80;24.30;;;;;;5055994;28;11516;-77
2021/09/06 14:21:08;;;;;;;;;14.00;14.00;34.70;25.10;;;;;;5056747;28;11509;-75
2021/09/06 14:23:34;;;;;;;;;16.75;16.75;34.40;26.10;;;;;;5055650;28;10191;-74
2021/09/06 14:26:00;;;;;;;;;17.75;17.75;34.00;25.00;;;;;;5056542;28;11540;-75
2021/09/06 14:28:27;;;;;;;;;17.00;17.00;33.70;25.60;;;;;;5056495;28;11492;-75
2021/09/06 14:30:53;;;;;;;;;13.25;13.25;33.40;26.30;;;;;;5056175;28;11496;-74
2021/09/06 14:33:19;;;;;;;;;18.00;18.00;33.10;25.60;;;;;;5055940;28;11563;-74
2021/09/06 14:35:45;;;;;;;;;13.50;13.50;32.80;25.80;;;;;;5058701;28;9544;-72
2021/09/06 14:38:12;;;;;;;;;17.25;17.25;32.60;26.00;;;;;;5055977;28;11502;-73
2021/09/06 14:40:38;;;;;;;;;16.00;16.00;32.60;26.50;;;;;;5055488;28;8813;-72
2021/09/06 14:43:05;;;;;;;;;15.50;15.50;32.30;26.50;;;;;;5055891;28;11548;-72
2021/09/06 14:45:33;;;;;;;;;16.25;16.25;32.30;27.20;;;;;;5052146;28;11509;-72
2021/09/06 14:47:59;;;;;;;;;14.00;14.00;32.20;26.70;;;;;;5054635;28;12274;-70
2021/09/06 14:50:25;;;;;;;;;16.00;16.00;32.00;26.80;;;;;;5054490;28;11614;-70
2021/09/06 14:52:57;;;;;;;;;13.50;13.50;31.90;27.00;;;;;;5053895;28;8802;-77
2021/09/06 14:55:23;;;;;;;;;16.50;16.50;31.60;27.30;;;;;;5055061;28;11525;-82
2021/09/06 14:57:49;;;;;;;;;17.00;17.00;31.50;27.40;;;;;;5055000;28;11487;-78
2021/09/06 15:00:15;;;;;;;;;17.50;17.50;31.30;27.00;;;;;;5055770;28;11491;-65
2021/09/06 15:02:41;;;;;;;;;19.00;19.00;31.20;27.20;;;;;;5055496;28;11505;-70
2021/09/06 15:05:07;;;;;;;;;14.00;14.00;31.10;27.30;;;;;;5055715;28;8818;-70
2021/09/06 15:07:33;;;;;;;;;16.25;16.25;31.10;27.40;;;;;;5055138;28;8795;-67
2021/09/06 15:09:58;;;;;;;;;15.75;15.75;31.00;27.50;;;;;;5055389;28;11545;-70
2021/09/06 15:12:24;;;;;;;;;17.75;17.75;30.90;27.50;;;;;;5054804;28;8790;-69
2021/09/06 15:14:53;;;;;;;;;13.25;13.25;31.00;27.70;;;;;;5053883;28;8826;-74
2021/09/06 15:17:19;;;;;;;;;16.00;16.00;30.80;27.60;;;;;;5054576;28;11616;-76
2021/09/06 15:19:45;;;;;;;;;15.00;15.00;30.70;27.90;;;;;;5054239;28;11603;-69
2021/09/06 15:22:11;;;;;;;;;17.00;17.00;30.80;28.30;;;;;;5055331;28;8759;-70
2021/09/06 15:24:37;;;;;;;;;16.50;16.50;30.60;28.20;;;;;;5054720;28;8779;-71
2021/09/06 15:27:07;;;;;;;;;14.25;14.25;30.60;28.40;;;;;;5054484;28;8775;-69
2021/09/06 15:30:07;;;;;;;;;19.00;19.00;30.60;28.40;;;;;;5054423;28;8766;-74
2021/09/06 15:32:34;;;;;;;;;18.00;18.00;30.40;28.40;;;;;;5050381;28;11604;-70
2021/09/06 15:35:00;;;;;;;;;18.25;18.25;30.40;28.10;;;;;;5054727;28;12255;-69
2021/09/06 15:37:28;;;;;;;;;16.25;16.25;30.40;28.40;;;;;;5052820;28;11530;-71
2021/09/06 15:39:56;;;;;;;;;18.50;18.50;30.30;28.20;;;;;;5051285;28;8864;-68
2021/09/06 15:42:22;;;;;;;;;19.00;19.00;30.20;28.70;;;;;;5050383;28;11510;-70
2021/09/06 15:44:48;;;;;;;;;19.25;19.25;30.20;28.60;;;;;;5048132;28;11532;-72
2021/09/06 15:47:16;;;;;;;;;19.00;19.00;30.20;28.70;;;;;;5048113;28;8775;-70
2021/09/06 15:49:43;;;;;;;;;18.00;18.00;30.20;29.10;;;;;;5052834;28;11520;-77
2021/09/06 15:52:10;;;;;;;;;20.25;20.25;30.20;28.80;;;;;;5052939;28;11661;-76
2021/09/06 15:54:36;;;;;;;;;15.50;15.50;30.10;29.00;;;;;;5052451;28;11524;-76
2021/09/06 15:57:03;;;;;;;;;17.00;17.00;30.00;28.70;;;;;;5053113;28;11510;-76
2021/09/06 15:59:29;;;;;;;;;19.75;19.75;29.90;29.20;;;;;;5052819;28;8767;-68
2021/09/06 16:01:55;;;;;;;;;21.00;20.00;29.90;29.20;;;;;;5053666;28;11517;-65
2021/09/06 16:04:21;;;;;;;;;15.75;15.75;29.80;29.10;;;;;;5049284;28;8825;-67
2021/09/06 16:06:46;;;;;;;;;17.50;17.50;29.80;29.50;;;;;;5054283;28;8838;-68
2021/09/06 16:09:12;;;;;;;;;13.00;13.00;29.70;29.50;;;;;;5053703;28;8771;-70
2021/09/06 16:11:38;;;;;;;;;15.75;15.75;29.60;29.40;;;;;;5054480;28;8880;-68
2021/09/06 16:14:05;;;;;;;;;18.00;18.00;29.50;29.70;;;;;;5054403;28;8859;-72
2021/09/06 16:16:31;;;;;;;;;18.25;18.25;29.40;29.80;;;;;;5054380;28;12435;-72
2021/09/06 16:18:57;;;;;;;;;15.00;15.00;29.40;29.80;;;;;;5054110;28;11513;-68
2021/09/06 16:21:23;;;;;;;;;19.00;19.00;29.40;29.90;;;;;;5054222;28;8793;-68
2021/09/06 16:23:48;;;;;;;;;20.00;20.00;29.30;30.00;;;;;;5054279;28;8790;-68
2021/09/06 16:26:15;;;;;;;;;16.25;16.25;29.20;30.00;;;;;;5054156;28;9440;-68
2021/09/06 16:28:41;;;;;;;;;16.00;16.00;29.20;30.00;;;;;;5054378;28;9463;-68
2021/09/06 16:31:07;;;;;;;;;18.33;18.33;29.20;30.00;;;;;;5054312;28;11503;-68
2021/09/06 16:33:33;;;;;;;;;14.50;14.50;29.20;30.00;;;;;;5053998;28;12422;-67
2021/09/06 16:35:58;;;;;;;;;20.50;20.50;29.10;30.00;;;;;;5053730;28;8981;-67
2021/09/06 16:38:24;;;;;;;;;19.75;19.75;29.00;30.20;;;;;;5054040;28;8759;-68
2021/09/06 16:40:50;;;;;;;;;15.00;15.00;29.00;30.20;;;;;;5054279;28;8893;-68
2021/09/06 16:43:16;;;;;;;;;20.00;20.00;29.00;30.50;;;;;;5054153;28;8771;-68
2021/09/06 16:45:42;;;;;;;;;19.00;19.00;28.90;30.50;;;;;;5054017;28;8779;-68
2021/09/06 16:48:07;;;;;;;;;20.25;20.25;28.90;30.80;;;;;;5053907;28;8783;-68
2021/09/06 16:50:33;;;;;;;;;18.00;18.00;28.90;31.00;;;;;;5052591;28;8857;-70
2021/09/06 16:52:59;;;;;;;;;20.25;20.25;28.90;30.90;;;;;;5053835;28;8779;-74
2021/09/06 16:55:25;;;;;;;;;19.00;18.50;28.80;30.90;;;;;;5053657;28;8791;-73
2021/09/06 16:57:51;;;;;;;;;19.67;19.67;28.60;30.90;;;;;;5053744;28;8860;-73
2021/09/06 17:00:17;;;;;;;;;19.25;19.25;28.60;31.10;;;;;;5053968;28;8767;-73
2021/09/06 17:02:44;;;;;;;;;18.25;18.25;28.70;31.20;;;;;;5053790;28;8760;-73
2021/09/06 17:05:12;;;;;;;;;15.00;15.00;28.60;31.60;;;;;;5053679;28;11517;-73
2021/09/06 17:07:39;;;;;;;;;20.00;20.00;28.50;31.50;;;;;;5053937;28;12208;-72
2021/09/06 17:10:11;;;;;;;;;22.67;22.67;28.40;31.70;;;;;;5069842;28;11612;-72
2021/09/06 17:12:37;;;;;;;;;24.67;24.67;28.40;31.70;;;;;;5053871;28;11490;-72
2021/09/06 17:15:04;;;;;;;;;21.00;21.00;28.30;31.90;;;;;;5053606;28;11528;-71
2021/09/06 17:17:30;;;;;;;;;21.00;21.00;28.20;32.00;;;;;;5053541;28;11489;-70
2021/09/06 17:19:55;;;;;;;;;23.33;23.33;28.00;32.00;;;;;;5069076;28;11521;-71
2021/09/06 17:22:21;;;;;;;;;23.67;23.67;27.90;32.30;;;;;;5056089;28;8782;-71
2021/09/06 17:24:47;;;;;;;;;23.25;21.25;27.90;32.30;;;;;;5057388;28;8783;-71
2021/09/06 17:27:14;;;;;;;;;17.00;17.00;27.90;32.30;;;;;;5057275;28;9024;-71
2021/09/06 17:29:40;;;;;;;;;19.00;19.00;27.80;32.40;;;;;;5057299;28;8785;-71
2021/09/06 17:32:06;;;;;;;;;23.33;23.33;27.60;32.60;;;;;;5057240;28;11568;-74
2021/09/06 17:34:32;;;;;;;;;20.00;20.00;27.60;32.90;;;;;;5056983;28;12485;-65
2021/09/06 17:36:58;;;;;;;;;22.00;22.00;27.70;33.10;;;;;;5057318;28;11523;-70
2021/09/06 17:39:24;;;;;;;;;22.67;22.67;27.70;33.00;;;;;;5057437;28;8915;-68
2021/09/06 17:41:50;;;;;;;;;22.33;22.33;27.60;32.80;;;;;;5057071;28;11492;-75
2021/09/06 17:44:17;;;;;;;;;23.67;23.67;27.70;33.10;;;;;;5072613;28;11563;-71
2021/09/06 17:46:43;;;;;;;;;21.33;21.33;27.60;33.10;;;;;;5057297;28;8782;-73
2021/09/06 17:49:09;;;;;;;;;21.33;21.33;27.50;33.00;;;;;;5056967;28;11516;-70
2021/09/06 17:51:35;;;;;;;;;24.67;24.67;27.40;33.00;;;;;;5056733;28;8783;-69
2021/09/06 17:54:01;;;;;;;;;22.33;22.33;27.30;33.30;;;;;;5057094;28;8763;-71
2021/09/06 17:56:26;;;;;;;;;20.67;20.67;27.40;33.40;;;;;;5057044;28;8879;-70
2021/09/06 17:58:52;;;;;;;;;22.00;22.00;27.40;33.40;;;;;;5056830;28;8785;-67
2021/09/06 18:01:18;;;;;;;;;20.67;20.67;27.30;33.60;;;;;;5056978;28;8796;-68
2021/09/06 18:03:44;;;;;;;;;20.00;20.00;27.40;33.70;;;;;;5056756;28;8767;-68
2021/09/06 18:06:10;;;;;;;;;22.00;22.00;27.30;33.80;;;;;;5056978;28;8837;-68
2021/09/06 18:08:35;;;;;;;;;20.33;20.33;27.40;33.90;;;;;;5056877;28;8775;-69
2021/09/06 18:11:02;;;;;;;;;24.33;24.33;27.40;33.80;;;;;;5056548;28;8766;-69
2021/09/06 18:13:29;;;;;;;;;23.00;23.00;27.40;33.80;;;;;;5056155;28;8782;-68
2021/09/06 18:15:55;;;;;;;;;20.33;20.33;27.30;34.10;;;;;;5056609;28;11522;-67
2021/09/06 18:18:21;;;;;;;;;39.33;33.33;27.30;34.20;;;;;;5056399;28;11513;-68
2021/09/06 18:20:47;;;;;;;;;31.00;29.33;27.30;34.50;;;;;;5056721;28;8755;-68
2021/09/06 18:23:14;;;;;;;;;26.33;26.33;27.30;34.20;;;;;;5056719;28;8759;-68
2021/09/06 18:25:40;;;;;;;;;22.00;22.00;27.30;34.30;;;;;;5056648;28;9493;-68
2021/09/06 18:28:06;;;;;;;;;29.33;29.33;27.20;34.30;;;;;;5056267;28;11610;-70
2021/09/06 18:30:34;;;;;;;;;25.00;25.00;27.10;34.90;;;;;;5056197;28;8779;-70
2021/09/06 18:33:01;;;;;;;;;24.67;24.67;27.00;34.80;;;;;;5056104;28;8885;-69
2021/09/06 18:35:27;;;;;;;;;23.67;23.67;27.00;35.10;;;;;;5055873;28;11549;-67
2021/09/06 18:37:53;;;;;;;;;24.67;24.67;27.00;35.80;;;;;;5056190;28;11512;-67
2021/09/06 18:40:19;;;;;;;;;23.67;23.67;26.90;35.50;;;;;;5011095;28;11320;-66
2021/09/06 18:42:45;;;;;;;;;25.67;25.67;26.90;35.80;;;;;;5032009;28;8808;-68
2021/09/06 18:45:12;;;;;;;;;27.33;27.33;26.90;35.90;;;;;;4976177;28;12092;-67
2021/09/06 18:47:39;;;;;;;;;24.00;24.00;26.90;36.10;;;;;;4983913;28;8800;-66
2021/09/06 18:51:14;;;;;;;;;26.67;26.67;26.60;38.90;;;;;;4975377;27;14165;-86
2021/09/06 18:53:40;;;;;;;;;25.00;25.00;26.90;37.00;;;;;;4948577;28;11709;-86
2021/09/06 18:56:51;;;;;;;;;25.00;25.00;27.00;38.30;;;;;;5076910;28;13533;-64
2021/09/06 18:59:18;;;;;;;;;25.00;25.00;26.80;35.90;;;;;;5085685;28;8806;-63
2021/09/06 19:01:44;;;;;;;;;25.67;25.67;26.70;36.20;;;;;;5091931;28;8784;-68
2021/09/06 19:04:10;;;;;;;;;26.33;26.33;26.50;36.60;;;;;;5091816;28;8780;-68
2021/09/06 19:06:38;;;;;;;;;24.00;24.00;26.40;36.60;;;;;;5092003;28;8803;-67
2021/09/06 19:09:05;;;;;;;;;28.67;28.67;26.40;36.80;;;;;;5091674;28;8797;-65
2021/09/06 19:11:31;;;;;;;;;33.33;31.67;26.40;36.90;;;;;;5091762;28;8765;-70
2021/09/06 19:13:57;;;;;;;;;32.67;31.33;26.30;37.10;;;;;;5091562;28;8776;-68
2021/09/06 19:16:23;;;;;;;;;38.67;35.33;26.30;37.30;;;;;;5091774;28;8811;-66
2021/09/06 19:18:48;;;;;;;;;36.33;33.00;26.20;37.50;;;;;;5091626;28;8757;-64
2021/09/06 19:21:14;;;;;;;;;41.33;36.67;26.10;37.90;;;;;;5091427;28;8899;-65
2021/09/06 19:23:42;;;;;;;;;43.00;37.33;26.10;37.70;;;;;;5091632;28;8768;-61
2021/09/06 19:26:08;;;;;;;;;42.67;37.67;26.10;37.90;;;;;;5091351;28;9473;-63
2021/09/06 19:28:35;;;;;;;;;46.33;40.33;26.00;37.90;;;;;;5091462;28;8780;-65
2021/09/06 19:31:04;;;;;;;;;48.33;42.00;26.00;38.20;;;;;;5091544;28;9422;-65
2021/09/06 19:33:30;;;;;;;;;41.67;37.33;26.00;38.20;;;;;;5084597;28;8766;-67
2021/09/06 19:35:57;;;;;;;;;40.33;35.33;26.00;38.30;;;;;;5091325;28;8806;-70
2021/09/06 19:38:23;;;;;;;;;35.33;33.33;26.00;38.10;;;;;;5082798;28;8784;-66
2021/09/06 19:40:49;;;;;;;;;37.33;34.67;26.00;38.40;;;;;;5080948;28;8780;-67
2021/09/06 19:43:16;;;;;;;;;34.67;33.33;26.00;38.40;;;;;;5075008;28;8775;-65
2021/09/06 19:45:42;;;;;;;;;27.00;27.00;25.90;38.40;;;;;;5070652;28;8802;-67
2021/09/06 19:48:08;;;;;;;;;36.33;34.00;25.90;38.60;;;;;;5070943;28;8766;-66
2021/09/06 19:50:34;;;;;;;;;34.33;33.33;25.90;38.70;;;;;;5076738;28;9465;-67
2021/09/06 19:53:00;;;;;;;;;35.33;33.67;25.90;38.60;;;;;;5077188;28;8791;-67
2021/09/06 19:55:26;;;;;;;;;35.00;32.67;25.80;38.70;;;;;;5090248;28;8845;-67
2021/09/06 19:57:52;;;;;;;;;32.33;31.67;25.70;39.00;;;;;;5102015;28;8874;-67
2021/09/06 20:00:18;;;;;;;;;33.33;32.33;25.70;39.20;;;;;;5090888;28;8774;-66
2021/09/06 20:02:44;;;;;;;;;28.67;26.67;25.70;39.20;;;;;;5101486;28;8873;-67
2021/09/06 20:05:10;;;;;;;;;26.00;25.33;25.70;39.10;;;;;;5105107;28;8764;-69
2021/09/06 20:07:38;;;;;;;;;31.33;30.67;25.70;39.00;;;;;;5099386;28;8788;-65
2021/09/06 20:10:04;;;;;;;;;33.67;32.00;25.60;39.10;;;;;;5096057;28;8865;-68
2021/09/06 20:12:30;;;;;;;;;29.00;29.00;25.60;39.20;;;;;;5094098;28;8968;-68
2021/09/06 20:15:01;;;;;;;;;34.33;33.33;25.60;39.20;;;;;;5091669;28;8788;-67
2021/09/06 20:17:28;;;;;;;;;43.33;37.33;25.50;38.80;;;;;;5096134;28;8744;-66
2021/09/06 20:19:54;;;;;;;;;46.00;40.00;25.50;39.00;;;;;;5093203;28;9413;-69
2021/09/06 20:22:20;;;;;;;;;56.00;47.33;25.50;39.20;;;;;;5091957;28;8745;-68
2021/09/06 20:24:45;;;;;;;;;53.33;45.67;25.40;39.30;;;;;;5094624;28;8800;-66
2021/09/06 20:27:11;;;;;;;;;54.00;46.00;25.40;39.40;;;;;;5095634;28;8756;-67
2021/09/06 20:29:37;;;;;;;;;44.00;38.33;25.40;39.10;;;;;;5095578;28;8795;-68
2021/09/06 20:32:03;;;;;;;;;49.33;42.33;25.30;39.30;;;;;;5095675;28;9478;-68
2021/09/06 20:34:29;;;;;;;;;47.67;41.33;25.30;39.20;;;;;;5090444;28;8744;-67
2021/09/06 20:36:54;;;;;;;;;40.33;36.67;25.30;39.30;;;;;;5092640;28;8836;-67
2021/09/06 20:39:20;;;;;;;;;43.00;36.67;25.30;39.40;;;;;;5085368;28;8768;-69
2021/09/06 20:41:46;;;;;;;;;48.00;41.00;25.30;39.30;;;;;;5086348;28;9438;-67
2021/09/06 20:44:12;;;;;;;;;47.67;41.67;25.20;39.50;;;;;;5087289;28;8837;-67
2021/09/06 20:46:38;;;;;;;;;45.67;40.00;25.30;39.70;;;;;;5090475;28;8768;-67
2021/09/06 20:49:05;;;;;;;;;45.67;39.67;25.20;39.50;;;;;;5093487;28;8853;-67
2021/09/06 20:51:31;;;;;;;;;36.00;34.00;25.10;40.10;;;;;;5095175;28;8829;-66
2021/09/06 20:53:57;;;;;;;;;32.67;32.00;25.00;40.10;;;;;;5095174;28;8787;-69
2021/09/06 20:56:23;;;;;;;;;33.00;32.00;25.00;40.20;;;;;;5094815;28;8800;-68
2021/09/06 20:58:49;;;;;;;;;32.33;31.67;25.00;40.00;;;;;;5094989;28;8756;-69
2021/09/06 21:01:15;;;;;;;;;34.33;33.33;25.00;40.20;;;;;;5095063;28;8892;-67
2021/09/06 21:03:41;;;;;;;;;33.00;32.00;25.00;39.90;;;;;;5091632;28;8814;-67
2021/09/06 21:06:07;;;;;;;;;32.67;31.67;24.90;40.10;;;;;;5093098;28;8760;-69
2021/09/06 21:08:35;;;;;;;;;25.33;25.33;24.90;40.30;;;;;;5090035;28;8776;-71
2021/09/06 21:11:06;;;;;;;;;35.00;33.67;24.80;40.70;;;;;;5089566;28;8763;-68
2021/09/06 21:13:32;;;;;;;;;43.33;38.00;24.80;42.20;;;;;;5091147;28;8882;-67
2021/09/06 21:15:58;;;;;;;;;37.67;35.00;24.80;42.60;;;;;;5091634;28;8779;-68
2021/09/06 21:18:24;;;;;;;;;36.67;34.33;24.80;42.10;;;;;;5094136;28;8762;-67
2021/09/06 21:20:50;;;;;;;;;49.67;43.00;24.80;42.30;;;;;;5088932;28;8752;-66
2021/09/06 21:23:16;;;;;;;;;45.00;39.67;24.70;43.00;;;;;;5094943;28;8837;-66
2021/09/06 21:25:42;;;;;;;;;44.33;38.67;24.70;44.00;;;;;;5090180;28;9410;-67
2021/09/06 21:28:08;;;;;;;;;39.00;36.00;24.70;44.10;;;;;;5093811;28;8778;-67
2021/09/06 21:30:34;;;;;;;;;36.33;34.33;24.70;44.00;;;;;;5091762;28;8764;-69
2021/09/06 21:33:00;;;;;;;;;34.00;33.00;24.70;43.90;;;;;;5094517;28;8756;-68
2021/09/06 21:35:26;;;;;;;;;31.00;31.00;24.60;43.90;;;;;;5094546;28;8838;-66
2021/09/06 21:37:52;;;;;;;;;31.00;31.00;24.60;43.90;;;;;;5094347;28;8806;-67
2021/09/06 21:40:18;;;;;;;;;30.00;30.00;24.60;43.70;;;;;;5094249;28;8760;-67
2021/09/06 21:42:43;;;;;;;;;31.00;31.00;24.60;43.40;;;;;;5094438;28;8757;-67
2021/09/06 21:45:10;;;;;;;;;27.67;27.67;24.50;43.40;;;;;;5094169;28;8764;-67
2021/09/06 21:47:37;;;;;;;;;26.00;26.00;24.50;43.40;;;;;;5094110;28;8770;-67
2021/09/06 21:50:04;;;;;;;;;24.33;24.33;24.50;43.70;;;;;;5094455;28;8763;-70
2021/09/06 21:52:30;;;;;;;;;27.67;27.67;24.40;43.40;;;;;;5091773;28;8755;-67
2021/09/06 21:54:56;;;;;;;;;28.00;28.00;24.40;43.60;;;;;;5093809;28;8812;-68
2021/09/06 21:57:22;;;;;;;;;31.00;31.00;24.40;43.60;;;;;;5094074;28;8833;-68
2021/09/06 21:59:48;;;;;;;;;31.00;31.00;24.30;43.60;;;;;;5094117;28;8764;-68
2021/09/06 22:02:13;;;;;;;;;31.00;30.67;24.20;43.60;;;;;;5094151;28;8752;-68
2021/09/06 22:04:39;;;;;;;;;32.67;31.33;24.10;44.10;;;;;;5093825;28;8764;-71
2021/09/06 22:07:06;;;;;;;;;30.33;30.33;24.10;43.90;;;;;;5093923;28;8764;-69
2021/09/06 22:09:33;;;;;;;;;27.33;27.33;24.00;43.90;;;;;;5091222;28;8814;-68
2021/09/06 22:11:59;;;;;;;;;28.67;27.67;24.00;43.80;;;;;;5091569;28;8762;-69
2021/09/06 22:14:26;;;;;;;;;28.00;28.00;24.00;43.90;;;;;;5093696;28;8830;-69
2021/09/06 22:16:53;;;;;;;;;25.00;25.00;24.00;44.00;;;;;;5093789;28;8796;-68
2021/09/06 22:19:19;;;;;;;;;27.67;27.00;24.00;44.00;;;;;;5093854;28;8756;-70
2021/09/06 22:21:45;;;;;;;;;23.33;23.33;24.00;43.70;;;;;;5091838;28;8776;-69
2021/09/06 22:24:11;;;;;;;;;26.67;26.67;24.00;43.60;;;;;;5071908;28;8760;-68
2021/09/06 22:26:37;;;;;;;;;28.67;28.67;24.00;43.70;;;;;;5093893;28;8796;-68
2021/09/06 22:29:03;;;;;;;;;27.33;27.33;24.00;43.70;;;;;;5093497;28;8807;-70
2021/09/06 22:31:29;;;;;;;;;25.67;25.67;24.00;43.20;;;;;;5093165;28;8822;-67
2021/09/06 22:33:55;;;;;;;;;27.33;27.33;23.90;42.70;;;;;;5093460;28;8775;-69
2021/09/06 22:36:21;;;;;;;;;32.33;32.00;23.90;42.30;;;;;;5092994;28;8808;-69
2021/09/06 22:38:47;;;;;;;;;27.33;27.33;23.90;42.10;;;;;;5077752;28;8760;-69
2021/09/06 22:41:14;;;;;;;;;25.67;25.67;23.90;42.00;;;;;;5094884;28;8788;-69
2021/09/06 22:43:40;;;;;;;;;26.00;26.00;23.90;42.00;;;;;;5088599;28;8747;-70
2021/09/06 22:46:06;;;;;;;;;30.67;30.00;23.80;41.90;;;;;;5074594;28;8768;-69
2021/09/06 22:48:32;;;;;;;;;32.67;31.33;23.80;42.00;;;;;;5074330;28;8828;-69
2021/09/06 22:50:58;;;;;;;;;27.00;27.00;23.70;42.00;;;;;;5074294;28;8766;-70
2021/09/06 22:53:24;;;;;;;;;30.00;30.00;23.70;42.10;;;;;;5074302;28;8774;-69
2021/09/06 22:55:49;;;;;;;;;31.00;30.33;23.60;42.20;;;;;;5073961;28;8822;-70
2021/09/06 22:58:16;;;;;;;;;35.33;32.33;23.60;42.30;;;;;;5074297;28;8857;-68
2021/09/06 23:00:42;;;;;;;;;30.00;30.00;23.60;42.40;;;;;;5083312;28;8795;-71
2021/09/06 23:03:07;;;;;;;;;31.00;31.00;23.50;42.30;;;;;;5094571;28;8771;-69
2021/09/06 23:05:33;;;;;;;;;33.67;33.00;23.50;42.60;;;;;;5094552;28;8861;-69
2021/09/06 23:07:59;;;;;;;;;37.00;35.33;23.40;42.60;;;;;;5094303;28;8793;-68
2021/09/06 23:10:25;;;;;;;;;30.00;30.00;23.30;42.80;;;;;;5094213;28;8768;-68
2021/09/06 23:12:50;;;;;;;;;35.00;33.67;23.30;43.00;;;;;;5094367;28;8802;-68
2021/09/06 23:15:16;;;;;;;;;27.33;26.33;23.10;43.20;;;;;;5094143;28;8881;-70
2021/09/06 23:17:42;;;;;;;;;28.67;28.67;23.20;43.30;;;;;;5094275;28;8784;-68
2021/09/06 23:20:09;;;;;;;;;32.33;31.33;23.10;43.50;;;;;;5094208;28;8783;-69
2021/09/06 23:22:35;;;;;;;;;36.33;35.00;23.10;43.60;;;;;;5094247;28;8752;-69
2021/09/06 23:25:00;;;;;;;;;32.33;31.67;23.00;44.00;;;;;;5094387;28;8818;-69
2021/09/06 23:27:27;;;;;;;;;31.67;31.67;22.90;44.20;;;;;;5094431;28;8771;-68
2021/09/06 23:29:54;;;;;;;;;27.33;27.33;22.90;44.60;;;;;;5094077;28;8776;-68
2021/09/06 23:32:20;;;;;;;;;31.00;30.67;22.90;44.70;;;;;;5094182;28;8768;-68
2021/09/06 23:34:46;;;;;;;;;35.33;34.33;22.90;44.80;;;;;;5094071;28;8760;-70
2021/09/06 23:37:12;;;;;;;;;32.00;31.67;22.90;45.00;;;;;;5094350;28;8930;-68
2021/09/06 23:39:38;;;;;;;;;31.67;31.33;22.80;45.10;;;;;;5094289;28;8854;-68
2021/09/06 23:42:04;;;;;;;;;35.67;33.67;22.70;45.30;;;;;;5095509;28;8775;-70
2021/09/06 23:44:30;;;;;;;;;35.33;34.00;22.70;45.30;;;;;;5097888;28;8882;-70
2021/09/06 23:46:55;;;;;;;;;35.33;33.67;22.70;45.20;;;;;;5097876;28;8952;-69
2021/09/06 23:49:21;;;;;;;;;41.33;37.33;22.70;45.30;;;;;;5097785;28;8755;-69
2021/09/06 23:51:47;;;;;;;;;43.67;39.00;22.80;45.50;;;;;;5097697;28;8760;-69
2021/09/06 23:54:13;;;;;;;;;41.33;37.67;22.70;45.50;;;;;;5079807;28;8874;-68
2021/09/06 23:56:38;;;;;;;;;36.33;35.00;22.60;45.80;;;;;;5097443;28;8950;-69
2021/09/06 23:59:04;;;;;;;;;44.00;38.67;22.50;46.20;;;;;;5080067;28;8776;-69
